Time;durP1;ratioP1;P1;durP2;ratioP2;P2;SDS_P1;SDS_P2;PMS_P1;PMS_P2;Temp;Humidity;BMP_temperature;BMP_pressure;BME280_temperature;BME280_humidity;BME280_pressure;Samples;Min_cycle;Max_cycle;Signal;HPM_P1;HPM_P2
2022/04/18 00:00:23;;;;;;;1.70;1.60;;;;;;;4.71;97.91;94352.75;4987823;28;20317;-81
2022/04/18 00:02:49;;;;;;;3.70;1.77;;;;;;;4.70;98.14;94351.19;4983908;28;20207;-80
2022/04/18 00:05:18;;;;;;;1.60;1.50;;;;;;;4.65;99.20;94350.16;4985358;28;20209;-80
2022/04/18 00:07:44;;;;;;;1.70;1.60;;;;;;;4.72;98.57;94338.91;4985860;28;20207;-79
2022/04/18 00:10:11;;;;;;;1.73;1.63;;;;;;;4.78;98.47;94339.94;4983377;28;20218;-80
2022/04/18 00:12:38;;;;;;;2.00;1.80;;;;;;;4.71;97.90;94341.66;4983428;28;20197;-81
2022/04/18 00:15:06;;;;;;;3.20;1.70;;;;;;;4.73;97.00;94335.38;4981898;28;20203;-81
2022/04/18 00:17:33;;;;;;;1.70;1.60;;;;;;;4.77;96.93;94336.56;4986656;28;20202;-80
2022/04/18 00:20:00;;;;;;;1.87;1.63;;;;;;;4.65;96.52;94335.50;4983020;28;20198;-81
2022/04/18 00:22:28;;;;;;;2.00;1.80;;;;;;;4.81;96.44;94347.28;4982413;28;20209;-80
2022/04/18 00:24:55;;;;;;;2.13;1.90;;;;;;;4.83;95.40;94346.09;4982511;28;20208;-79
2022/04/18 00:27:29;;;;;;;2.00;1.80;;;;;;;4.83;96.49;94343.53;4975731;28;20836;-81
2022/04/18 00:29:55;;;;;;;2.03;1.83;;;;;;;4.84;95.10;94339.19;4973403;28;20220;-82
2022/04/18 00:32:22;;;;;;;2.20;1.80;;;;;;;4.91;95.35;94334.84;4986443;28;20684;-82
2022/04/18 00:34:49;;;;;;;2.20;1.97;;;;;;;4.77;96.13;94330.59;4984697;28;20849;-81
2022/04/18 00:37:16;;;;;;;2.47;1.90;;;;;;;4.73;94.81;94327.66;4982905;28;20206;-80
2022/04/18 00:39:44;;;;;;;1.80;1.70;;;;;;;4.67;96.37;94327.59;4987888;28;20243;-80
2022/04/18 00:42:11;;;;;;;2.03;1.70;;;;;;;4.70;96.47;94329.78;4987216;28;20212;-80
2022/04/18 00:44:37;;;;;;;1.83;1.73;;;;;;;4.80;94.90;94327.66;4985755;28;20196;-81
2022/04/18 00:47:05;;;;;;;2.13;1.93;;;;;;;4.70;94.63;94338.31;4983006;28;20200;-79
2022/04/18 00:49:34;;;;;;;2.17;1.90;;;;;;;4.62;95.46;94333.28;4984210;28;20231;-80
2022/04/18 00:52:03;;;;;;;2.40;1.70;;;;;;;4.63;95.62;94326.38;4983706;28;20220;-79
2022/04/18 00:54:31;;;;;;;1.80;1.70;;;;;;;4.73;95.00;94319.91;4983944;28;20202;-81
2022/04/18 00:56:59;;;;;;;2.00;1.90;;;;;;;4.82;94.78;94321.34;4981880;28;20205;-81
2022/04/18 00:59:28;;;;;;;2.23;2.00;;;;;;;4.62;95.96;94310.13;4984221;28;20205;-84
2022/04/18 01:01:54;;;;;;;2.27;2.07;;;;;;;4.53;94.94;94321.59;4986389;28;21157;-79
2022/04/18 01:04:21;;;;;;;5.47;2.27;;;;;;;4.58;95.25;94334.69;4985713;28;21208;-79
2022/04/18 01:06:49;;;;;;;3.00;2.43;;;;;;;4.45;96.38;94309.66;4983347;28;20212;-81
2022/04/18 01:09:15;;;;;;;2.37;2.17;;;;;;;4.52;96.13;94315.66;4984673;28;20238;-79
2022/04/18 01:11:42;;;;;;;3.07;2.30;;;;;;;4.56;95.40;94321.19;4985022;28;20602;-79
2022/04/18 01:14:10;;;;;;;3.83;2.40;;;;;;;4.52;95.68;94314.84;4982481;28;20196;-81
2022/04/18 01:16:37;;;;;;;2.50;2.30;;;;;;;4.47;96.55;94307.69;4983243;28;20200;-78
2022/04/18 01:19:05;;;;;;;3.70;2.47;;;;;;;4.48;95.75;94306.72;4982084;28;20190;-79
2022/04/18 01:21:33;;;;;;;2.53;2.33;;;;;;;4.47;96.42;94307.69;4985159;28;20198;-78
2022/04/18 01:24:00;;;;;;;2.90;2.60;;;;;;;4.39;96.15;94301.88;4984787;28;20865;-79
2022/04/18 01:29:12;;;;;;;3.27;2.93;;;;;;;4.47;96.79;94299.97;4982982;28;20224;-80
2022/04/18 01:31:39;;;;;;;3.47;2.70;;;;;;;4.51;95.06;94297.81;4983411;28;20205;-82
2022/04/18 01:34:07;;;;;;;3.67;2.70;;;;;;;4.41;96.61;94285.31;4983807;28;20202;-80
2022/04/18 01:36:36;;;;;;;3.27;2.20;;;;;;;4.53;96.26;94288.16;4983925;28;20195;-78
2022/04/18 01:39:03;;;;;;;6.07;2.60;;;;;;;4.58;95.96;94280.66;4981060;28;20235;-79
2022/04/18 01:41:30;;;;;;;3.13;2.20;;;;;;;4.46;97.10;94288.09;4982791;28;20193;-81
2022/04/18 01:43:58;;;;;;;2.70;2.03;;;;;;;4.43;96.14;94280.75;4981708;28;20205;-80
2022/04/18 01:46:25;;;;;;;2.17;1.97;;;;;;;4.36;96.36;94269.63;4983265;28;20197;-78
2022/04/18 01:48:53;;;;;;;2.40;2.17;;;;;;;4.43;96.03;94275.63;4982961;28;20207;-83
2022/04/18 01:51:20;;;;;;;4.10;1.93;;;;;;;4.45;96.95;94259.97;4984274;28;20220;-80
2022/04/18 01:53:49;;;;;;;2.17;1.97;;;;;;;4.47;96.14;94271.66;4983188;28;20228;-80
2022/04/18 01:56:16;;;;;;;3.07;2.23;;;;;;;4.43;96.85;94264.53;4984181;28;20209;-81
2022/04/18 01:58:42;;;;;;;2.80;2.17;;;;;;;4.53;96.39;94265.00;4983965;28;20225;-81
2022/04/18 02:01:09;;;;;;;2.30;1.93;;;;;;;4.52;96.46;94261.63;4981529;28;20681;-82
2022/04/18 02:03:36;;;;;;;2.20;2.00;;;;;;;4.65;96.87;94267.81;4983128;28;20201;-82
2022/04/18 02:06:03;;;;;;;2.10;1.90;;;;;;;4.65;95.19;94267.81;4982995;28;20625;-81
2022/04/18 02:08:30;;;;;;;3.27;1.90;;;;;;;4.64;95.18;94256.72;4984162;28;20949;-82
2022/04/18 02:10:58;;;;;;;2.30;1.97;;;;;;;4.61;96.01;94259.69;4983028;28;20228;-80
2022/04/18 02:13:25;;;;;;;3.23;2.00;;;;;;;4.59;96.04;94254.72;4981680;28;20202;-80
2022/04/18 02:15:53;;;;;;;2.20;2.00;;;;;;;4.55;96.18;94258.66;4985093;28;20213;-79
2022/04/18 02:18:20;;;;;;;3.33;1.83;;;;;;;4.47;95.44;94252.88;4982531;28;20325;-80
2022/04/18 02:20:47;;;;;;;2.73;1.80;;;;;;;4.43;96.31;94247.31;4983046;28;20216;-83
2022/04/18 02:23:14;;;;;;;1.70;1.60;;;;;;;4.52;96.40;94243.63;4982501;28;21027;-80
2022/04/18 02:25:41;;;;;;;1.70;1.60;;;;;;;4.52;95.55;94240.25;4982407;28;20206;-79
2022/04/18 02:28:09;;;;;;;2.00;1.80;;;;;;;4.44;96.08;94243.75;4984683;28;20218;-80
2022/04/18 02:30:36;;;;;;;2.13;1.60;;;;;;;4.50;95.97;94239.66;4986630;28;20632;-81
2022/04/18 02:33:03;;;;;;;1.73;1.63;;;;;;;4.45;95.72;94237.63;4984745;28;20314;-79
2022/04/18 02:35:29;;;;;;;2.13;1.53;;;;;;;4.39;95.97;94245.31;4986636;28;20283;-80
2022/04/18 02:37:56;;;;;;;1.60;1.50;;;;;;;4.24;97.24;94242.84;4986141;28;20205;-82
2022/04/18 02:40:23;;;;;;;1.77;1.67;;;;;;;4.17;96.93;94238.66;4986191;28;20202;-80
2022/04/18 02:42:50;;;;;;;1.77;1.67;;;;;;;4.24;97.39;94237.72;4986058;28;20292;-78
2022/04/18 02:45:20;;;;;;;2.53;1.83;;;;;;;4.30;96.45;94238.75;4986275;28;20208;-81
2022/04/18 02:47:47;;;;;;;1.97;1.80;;;;;;;4.29;95.44;94240.53;4984792;28;21082;-80
2022/04/18 02:50:15;;;;;;;1.70;1.60;;;;;;;4.31;96.42;94238.53;4985272;28;20231;-80
2022/04/18 02:52:42;;;;;;;1.80;1.63;;;;;;;4.07;98.29;94236.41;4985819;28;20690;-82
2022/04/18 02:55:11;;;;;;;1.70;1.60;;;;;;;3.99;98.11;94232.22;4985155;28;20235;-80
2022/04/18 02:57:39;;;;;;;1.60;1.50;;;;;;;3.91;99.03;94234.16;4984929;28;20708;-80
2022/04/18 03:00:07;;;;;;;1.60;1.50;;;;;;;3.84;99.57;94228.97;4985701;28;20283;-80
2022/04/18 03:02:36;;;;;;;2.00;1.77;;;;;;;3.92;98.92;94228.03;4985543;28;20236;-79
2022/04/18 03:05:04;;;;;;;2.87;2.00;;;;;;;3.86;99.09;94228.78;4985482;28;20202;-80
2022/04/18 03:07:31;;;;;;;3.50;2.20;;;;;;;3.76;99.91;94234.25;4987452;28;20413;-81
2022/04/18 03:09:58;;;;;;;2.10;1.90;;;;;;;3.72;100.00;94222.72;4984312;28;20224;-82
2022/04/18 03:12:25;;;;;;;2.43;2.10;;;;;;;3.88;99.66;94227.63;4986164;28;20217;-81
2022/04/18 03:14:52;;;;;;;2.77;2.30;;;;;;;3.93;100.00;94222.69;4987589;28;20213;-80
2022/04/18 03:17:19;;;;;;;3.07;2.40;;;;;;;3.97;100.00;94216.22;4986115;28;20203;-81
2022/04/18 03:19:47;;;;;;;5.13;2.33;;;;;;;4.15;99.72;94220.88;4986192;28;20634;-80
2022/04/18 03:22:14;;;;;;;5.03;2.60;;;;;;;4.09;98.98;94221.63;4986955;28;20250;-80
2022/04/18 03:24:41;;;;;;;2.60;2.40;;;;;;;3.99;99.63;94218.56;4985783;28;20208;-79
2022/04/18 03:27:08;;;;;;;2.77;2.40;;;;;;;4.13;98.06;94227.19;4985064;28;20189;-80
2022/04/18 03:29:35;;;;;;;2.20;2.00;;;;;;;4.04;98.73;94223.16;4986391;28;20227;-79
2022/04/18 03:32:02;;;;;;;2.60;1.83;;;;;;;4.00;99.53;94233.03;4985529;28;20259;-82
2022/04/18 03:34:29;;;;;;;2.03;1.77;;;;;;;3.89;98.93;94231.78;4988331;28;20201;-83
2022/04/18 03:39:54;;;;;;;2.20;1.60;;;;;;;3.71;99.24;94225.50;4986822;28;20236;-84
2022/04/18 03:42:30;;;;;;;2.10;1.90;;;;;;;3.72;99.56;94225.31;4989188;28;20247;-81
2022/04/18 03:45:01;;;;;;;1.90;1.70;;;;;;;3.76;99.75;94225.72;4988638;28;20203;-83
2022/04/18 03:47:28;;;;;;;1.97;1.67;;;;;;;3.81;98.53;94223.41;4989419;28;20216;-84
2022/04/18 03:49:55;;;;;;;2.00;1.80;;;;;;;3.86;99.07;94221.06;4986550;28;20711;-81
2022/04/18 03:52:25;;;;;;;3.27;2.03;;;;;;;3.82;99.17;94218.06;4971216;28;20650;-81
2022/04/18 03:54:52;;;;;;;2.00;1.80;;;;;;;3.99;98.94;94234.00;4951462;28;20202;-80
2022/04/18 03:57:19;;;;;;;1.80;1.70;;;;;;;3.98;99.03;94229.84;4966002;28;20954;-80
2022/04/18 03:59:46;;;;;;;2.63;2.00;;;;;;;3.86;99.38;94227.00;4991735;28;20196;-82
2022/04/18 04:02:13;;;;;;;2.87;1.97;;;;;;;3.83;98.10;94224.81;4992143;28;20589;-81
2022/04/18 04:04:41;;;;;;;2.60;2.00;;;;;;;3.74;99.56;94225.13;4996150;28;20199;-81
2022/04/18 04:07:08;;;;;;;2.77;1.97;;;;;;;3.78;99.77;94218.66;4993832;28;20199;-81
2022/04/18 04:09:36;;;;;;;3.10;2.17;;;;;;;3.84;99.16;94220.44;4990069;28;20216;-82
2022/04/18 04:12:04;;;;;;;3.63;2.00;;;;;;;3.94;99.24;94238.91;4992780;28;20184;-82
2022/04/18 04:14:31;;;;;;;3.13;2.67;;;;;;;3.98;98.53;94238.34;4986472;28;20209;-78
2022/04/18 04:16:58;;;;;;;2.90;2.70;;;;;;;3.90;98.30;94233.34;4984773;28;20218;-81
2022/04/18 04:19:24;;;;;;;3.00;2.70;;;;;;;3.87;98.29;94235.50;4994803;28;20203;-79
2022/04/18 04:21:51;;;;;;;4.30;2.70;;;;;;;3.91;99.07;94229.81;4994132;28;20193;-79
2022/04/18 04:24:20;;;;;;;3.93;3.00;;;;;;;3.99;98.86;94229.66;4989116;28;20295;-80
2022/04/18 04:26:48;;;;;;;4.47;3.50;;;;;;;3.83;99.40;94234.31;4988043;28;20275;-73
2022/04/18 04:29:15;;;;;;;6.43;3.13;;;;;;;3.76;100.00;94234.25;4987323;28;22101;-73
2022/04/18 04:31:44;;;;;;;4.33;3.23;;;;;;;3.76;98.98;94230.88;4986584;28;20311;-73
2022/04/18 04:34:12;;;;;;;5.37;3.40;;;;;;;3.76;98.99;94225.72;4988318;28;20294;-74
2022/04/18 04:36:40;;;;;;;5.57;3.57;;;;;;;3.77;99.16;94235.03;4986804;28;20279;-75
2022/04/18 04:39:06;;;;;;;4.57;3.40;;;;;;;3.77;99.13;94243.53;4984908;28;20227;-74
2022/04/18 04:41:33;;;;;;;6.73;3.53;;;;;;;3.83;99.18;94237.66;4987283;28;20211;-73
2022/04/18 04:44:02;;;;;;;7.10;3.63;;;;;;;3.87;98.99;94240.63;4990003;28;20212;-76
2022/04/18 04:46:28;;;;;;;5.97;3.57;;;;;;;3.83;99.34;94242.81;4996973;28;20206;-76
2022/04/18 04:49:02;;;;;;;3.93;3.37;;;;;;;3.80;98.98;94239.81;4993618;28;21657;-74
2022/04/18 04:51:33;;;;;;;3.70;3.33;;;;;;;3.79;99.00;94246.72;4986288;28;20224;-75
2022/04/18 04:54:00;;;;;;;4.23;3.53;;;;;;;3.86;98.82;94252.72;4985904;28;20267;-74
2022/04/18 04:56:28;;;;;;;4.10;3.63;;;;;;;3.80;98.81;94238.03;4989442;28;20207;-74
2022/04/18 04:58:54;;;;;;;4.27;3.20;;;;;;;3.83;98.34;94231.72;4987427;28;20204;-75
2022/04/18 05:01:23;;;;;;;4.03;3.43;;;;;;;3.98;98.79;94240.91;4988698;28;20192;-74
2022/04/18 05:03:50;;;;;;;4.47;3.60;;;;;;;4.13;98.28;94248.53;4989649;28;20207;-75
2022/04/18 05:06:17;;;;;;;8.20;3.90;;;;;;;4.32;96.91;94247.88;4986873;28;20201;-74
2022/04/18 05:08:44;;;;;;;6.90;3.70;;;;;;;4.41;95.52;94248.50;4985556;28;20209;-71
2022/04/18 05:11:11;;;;;;;5.13;3.30;;;;;;;4.37;95.20;94245.50;4987223;28;20710;-79
2022/04/18 05:13:38;;;;;;;4.63;3.40;;;;;;;4.49;95.00;94253.47;4988115;28;20856;-72
2022/04/18 05:16:05;;;;;;;6.23;3.60;;;;;;;4.39;94.64;94255.59;4986690;28;20201;-72
2022/04/18 05:18:33;;;;;;;4.93;3.70;;;;;;;4.42;95.23;94250.88;4990953;28;20219;-71
2022/04/18 05:21:00;;;;;;;5.30;3.70;;;;;;;4.52;95.85;94253.91;4986527;28;20574;-73
2022/04/18 05:23:27;;;;;;;7.30;4.13;;;;;;;4.71;95.76;94257.53;4991094;28;20197;-72
2022/04/18 05:25:53;;;;;;;5.60;4.27;;;;;;;4.86;94.12;94258.19;4991073;28;20205;-73
2022/04/18 05:28:20;;;;;;;5.03;3.70;;;;;;;4.92;93.39;94262.56;4988821;28;20209;-73
2022/04/18 05:30:47;;;;;;;5.00;3.77;;;;;;;5.00;92.53;94262.41;4985742;28;20227;-73
2022/04/18 05:33:14;;;;;;;4.37;3.53;;;;;;;4.79;93.42;94262.50;4990705;28;20268;-73
2022/04/18 05:35:42;;;;;;;4.20;3.40;;;;;;;4.79;93.41;94259.94;4986312;28;20203;-72
2022/04/18 05:38:09;;;;;;;5.90;3.60;;;;;;;4.88;93.57;94268.28;4985214;28;20752;-72
2022/04/18 05:40:36;;;;;;;8.57;3.60;;;;;;;4.83;92.31;94271.44;4988357;28;20237;-72
2022/04/18 05:43:03;;;;;;;5.90;3.73;;;;;;;4.83;92.71;94274.03;4988323;28;20290;-71
2022/04/18 05:45:30;;;;;;;4.67;3.47;;;;;;;4.79;93.33;94277.94;4987578;28;20225;-73
2022/04/18 05:47:57;;;;;;;7.67;3.37;;;;;;;4.91;93.98;94278.19;4990974;28;20223;-72
2022/04/18 05:50:24;;;;;;;4.40;3.40;;;;;;;4.93;93.23;94276.25;4986476;28;20717;-72
2022/04/18 05:52:52;;;;;;;8.60;3.50;;;;;;;4.87;91.81;94269.28;4989280;28;20586;-73
2022/04/18 05:55:19;;;;;;;4.77;3.27;;;;;;;4.80;91.94;94284.69;4988701;28;20730;-75
2022/04/18 05:57:45;;;;;;;5.10;3.43;;;;;;;4.75;93.76;94281.91;4989591;28;21130;-71
2022/04/18 06:00:13;;;;;;;13.27;7.93;;;;;;;4.76;94.27;94282.72;4989739;28;20237;-72
2022/04/18 06:02:40;;;;;;;4.80;3.37;;;;;;;4.92;91.92;94282.38;4991661;28;20201;-74
2022/04/18 06:05:07;;;;;;;9.33;3.57;;;;;;;5.07;91.63;94286.41;4992993;28;20194;-72
2022/04/18 06:07:34;;;;;;;7.67;3.97;;;;;;;5.28;90.73;94287.25;4990198;28;20202;-72
2022/04/18 06:10:03;;;;;;;6.80;3.70;;;;;;;5.02;91.93;94288.75;4988751;28;20301;-72
2022/04/18 06:12:30;;;;;;;4.50;3.43;;;;;;;5.09;92.04;94288.78;4990477;28;20641;-74
2022/04/18 06:14:57;;;;;;;6.33;3.40;;;;;;;5.18;91.91;94282.47;4993167;28;20202;-73
2022/04/18 06:17:24;;;;;;;3.83;3.37;;;;;;;5.47;91.55;94286.50;4993504;28;20206;-73
2022/04/18 06:19:50;;;;;;;6.40;3.47;;;;;;;5.46;91.40;94290.06;4990027;28;20203;-72
2022/04/18 06:22:17;;;;;;;5.50;3.73;;;;;;;5.32;91.67;94289.22;4990536;28;20238;-73
2022/04/18 06:24:44;;;;;;;4.00;2.97;;;;;;;5.43;90.88;94295.59;4991534;28;20210;-72
2022/04/18 06:27:15;;;;;;;5.50;3.07;;;;;;;5.54;90.25;94297.63;4990506;28;20199;-74
2022/04/18 06:29:42;;;;;;;5.50;3.30;;;;;;;5.59;91.15;94284.94;4992542;28;20297;-73
2022/04/18 06:32:09;;;;;;;3.60;3.10;;;;;;;5.66;89.75;94288.28;4988039;28;20222;-72
2022/04/18 06:34:36;;;;;;;4.03;3.23;;;;;;;5.72;88.41;94297.81;4992434;28;20214;-73
2022/04/18 06:37:03;;;;;;;3.87;3.00;;;;;;;5.82;89.09;94297.44;4990214;28;20551;-73
2022/04/18 06:39:30;;;;;;;4.47;3.20;;;;;;;5.84;87.60;94296.25;4989385;28;20252;-73
2022/04/18 06:41:57;;;;;;;4.60;3.30;;;;;;;5.83;88.07;94299.03;4989572;28;20563;-72
2022/04/18 06:44:25;;;;;;;6.10;3.60;;;;;;;5.98;89.28;94303.03;4990288;28;20207;-72
2022/04/18 06:46:53;;;;;;;6.10;3.30;;;;;;;6.04;88.60;94299.66;4990521;28;20203;-83
2022/04/18 06:49:19;;;;;;;3.83;3.07;;;;;;;6.16;87.93;94300.66;4992300;28;20298;-83
2022/04/18 06:51:46;;;;;;;4.50;3.50;;;;;;;6.15;88.60;94281.00;4991676;28;20239;-84
2022/04/18 06:54:13;;;;;;;5.13;3.10;;;;;;;6.24;87.53;94297.88;4991968;28;20214;-83
2022/04/18 06:59:26;;;;;;;4.43;3.23;;;;;;;6.29;87.22;94305.03;4992692;28;20203;-87
2022/04/18 07:01:53;;;;;;;4.87;3.70;;;;;;;6.13;87.57;94289.94;4991837;28;20196;-86
2022/04/18 07:04:20;;;;;;;5.33;3.20;;;;;;;6.04;86.59;94278.22;4990885;28;20209;-87
2022/04/18 07:06:47;;;;;;;4.87;3.13;;;;;;;6.15;87.54;94304.22;4989267;28;20597;-82
2022/04/18 07:09:14;;;;;;;8.80;4.97;;;;;;;5.94;87.65;94303.63;4988837;28;20211;-79
2022/04/18 07:11:42;;;;;;;3.90;3.20;;;;;;;5.87;89.78;94300.25;4987852;28;20660;-86
2022/04/18 07:14:09;;;;;;;9.03;3.20;;;;;;;5.70;90.84;94303.19;4988900;28;20229;-80
2022/04/18 07:16:37;;;;;;;4.23;3.17;;;;;;;5.61;90.82;94294.06;4988662;28;20205;-81
2022/04/18 07:19:04;;;;;;;3.03;2.73;;;;;;;5.29;90.96;94289.63;4988404;28;20206;-91
2022/04/18 07:21:32;;;;;;;3.13;2.80;;;;;;;5.23;90.47;94302.47;4987098;28;20208;-84
2022/04/18 07:23:59;;;;;;;5.70;3.87;;;;;;;4.99;91.93;94283.97;4990339;28;20214;-86
2022/04/18 07:26:25;;;;;;;5.37;4.00;;;;;;;5.21;92.72;94309.59;4990782;28;20210;-91
2022/04/18 07:28:53;;;;;;;5.47;3.10;;;;;;;5.18;92.87;94294.53;4991328;28;20217;-91
2022/04/18 07:31:20;;;;;;;4.07;2.70;;;;;;;5.32;91.54;94288.44;4993633;28;20228;-77
2022/04/18 07:33:48;;;;;;;4.93;2.80;;;;;;;5.46;94.08;94296.00;4990783;28;20206;-78
2022/04/18 07:36:15;;;;;;;4.90;3.20;;;;;;;5.54;91.88;94300.19;4996929;28;20222;-87
2022/04/18 07:38:51;;;;;;;3.00;2.70;;;;;;;5.59;90.46;94300.41;4993674;28;20237;-87
2022/04/18 07:41:19;;;;;;;4.50;3.07;;;;;;;5.52;90.57;94308.09;4988334;28;20288;-74
2022/04/18 07:43:47;;;;;;;3.57;3.00;;;;;;;5.48;91.19;94309.47;4991000;28;20210;-74
2022/04/18 07:46:15;;;;;;;5.33;3.23;;;;;;;5.51;90.68;94301.34;4992356;28;20207;-84
2022/04/18 07:48:43;;;;;;;4.77;3.10;;;;;;;5.63;90.77;94309.31;4990817;28;20210;-85
2022/04/18 07:54:07;;;;;;;3.03;2.70;;;;;;;5.49;89.72;94316.22;4995121;28;20213;-90
2022/04/18 07:57:21;;;;;;;5.83;3.33;;;;;;;5.48;90.29;94306.91;4998005;28;20187;-89
2022/04/18 07:59:59;;;;;;;3.90;2.93;;;;;;;5.66;90.61;94320.03;4892253;28;20287;-92
2022/04/18 08:02:29;;;;;;;4.93;3.03;;;;;;;5.34;89.52;94279.53;4993047;28;20198;-89
2022/04/18 08:04:56;;;;;;;3.37;2.77;;;;;;;5.51;89.48;94310.91;4995161;28;21004;-88
2022/04/18 08:07:25;;;;;;;2.60;2.40;;;;;;;5.63;89.54;94315.25;5002216;28;20202;-85
2022/04/18 08:09:51;;;;;;;4.20;2.80;;;;;;;5.93;88.33;94317.50;4993968;28;20203;-84
2022/04/18 08:12:18;;;;;;;6.67;2.60;;;;;;;5.85;87.45;94317.69;4996239;28;20658;-86
2022/04/18 08:14:45;;;;;;;3.67;2.77;;;;;;;5.76;87.11;94305.97;4996296;28;20334;-85
2022/04/18 08:17:12;;;;;;;3.40;2.60;;;;;;;5.72;86.96;94319.25;5000630;28;20203;-85
2022/04/18 08:19:39;;;;;;;5.20;2.40;;;;;;;5.77;87.02;94321.25;4997190;28;20206;-89
2022/04/18 08:22:06;;;;;;;3.37;2.90;;;;;;;5.74;87.50;94311.31;4996428;28;20200;-83
2022/04/18 08:24:37;;;;;;;5.37;2.50;;;;;;;5.80;87.45;94307.16;5000058;28;20213;-93
2022/04/18 08:27:05;;;;;;;3.07;2.50;;;;;;;5.58;87.21;94283.34;4995566;28;20692;-86
2022/04/18 08:29:32;;;;;;;3.73;2.60;;;;;;;5.98;86.44;94325.44;5004032;28;20296;-85
2022/04/18 08:31:58;;;;;;;2.73;2.50;;;;;;;6.01;87.16;94327.63;5000880;28;20239;-85
2022/04/18 08:34:25;;;;;;;3.10;2.57;;;;;;;6.10;86.12;94321.28;4997961;28;20623;-85
2022/04/18 08:36:52;;;;;;;4.43;2.97;;;;;;;6.14;86.65;94317.31;4994635;28;20207;-84
2022/04/18 08:39:19;;;;;;;5.07;2.60;;;;;;;6.02;87.13;94316.31;4991794;28;20229;-84
2022/04/18 08:41:52;;;;;;;2.47;2.17;;;;;;;5.99;86.16;94327.03;4974769;28;20194;-84
2022/04/18 08:44:20;;;;;;;3.17;2.40;;;;;;;6.01;84.26;94328.41;4991753;28;20221;-86
2022/04/18 08:46:48;;;;;;;2.70;2.40;;;;;;;6.03;84.50;94320.50;5000349;28;20189;-84
2022/04/18 08:54:46;;;;;;;4.20;2.30;;;;;;;5.94;85.80;94337.97;4991742;28;20242;-83
2022/04/18 08:57:14;;;;;;;3.30;2.30;;;;;;;5.87;87.90;94321.66;4991843;28;20202;-84
2022/04/18 08:59:41;;;;;;;3.03;2.20;;;;;;;6.06;85.30;94330.44;4992114;28;20195;-85
2022/04/18 09:02:08;;;;;;;2.67;2.23;;;;;;;6.06;83.87;94322.69;4992172;28;20593;-85
2022/04/18 09:04:35;;;;;;;3.00;2.30;;;;;;;6.14;84.74;94317.31;4991647;28;20682;-85
2022/04/18 09:07:10;;;;;;;5.33;2.30;;;;;;;6.27;84.29;94315.53;4983226;28;20211;-85
2022/04/18 09:09:38;;;;;;;3.73;2.30;;;;;;;6.32;84.64;94314.91;4998444;28;20201;-85
2022/04/18 09:12:05;;;;;;;3.90;2.77;;;;;;;6.51;84.91;94314.13;4992073;28;20714;-86
2022/04/18 09:14:36;;;;;;;5.87;2.70;;;;;;;6.53;83.25;94319.06;5006322;28;20198;-85
2022/04/18 09:17:03;;;;;;;6.40;2.73;;;;;;;6.63;82.87;94320.25;4997800;28;20215;-82
2022/04/18 09:19:33;;;;;;;6.57;2.70;;;;;;;6.67;83.59;94297.38;5010148;28;20231;-88
2022/04/18 09:22:03;;;;;;;3.73;2.60;;;;;;;6.89;83.04;94313.44;5002051;28;20227;-86
2022/04/18 09:24:35;;;;;;;3.97;2.30;;;;;;;7.01;82.14;94316.97;4991999;28;20200;-86
2022/04/18 09:27:07;;;;;;;3.13;2.27;;;;;;;7.15;81.18;94315.94;4992335;28;20288;-85
2022/04/18 09:29:38;;;;;;;3.17;2.13;;;;;;;6.92;80.21;94275.06;4991054;28;20628;-85
2022/04/18 09:32:09;;;;;;;3.00;2.40;;;;;;;7.14;79.92;94317.72;5001341;28;20211;-84
2022/04/18 09:34:35;;;;;;;3.10;1.97;;;;;;;7.09;79.98;94307.19;5011270;28;20651;-87
2022/04/18 09:37:13;;;;;;;3.20;2.10;;;;;;;6.80;80.10;94305.09;4999242;28;20203;-88
2022/04/18 09:39:42;;;;;;;4.83;2.23;;;;;;;6.89;80.74;94310.84;4988682;28;20294;-85
2022/04/18 09:42:10;;;;;;;4.03;2.27;;;;;;;6.97;81.36;94306.25;4996111;28;20578;-88
2022/04/18 09:44:39;;;;;;;3.37;2.10;;;;;;;7.01;79.82;94285.97;4990897;28;20210;-88
2022/04/18 09:47:06;;;;;;;8.27;2.17;;;;;;;7.11;79.38;94310.38;4994819;28;20243;-77
2022/04/18 09:49:41;;;;;;;3.47;2.47;;;;;;;7.03;79.31;94299.47;4996032;28;20586;-88
2022/04/18 09:52:11;;;;;;;4.50;2.00;;;;;;;6.96;77.74;94296.91;4999458;28;20219;-89
2022/04/18 09:54:44;;;;;;;2.43;1.93;;;;;;;6.74;79.71;94291.22;4992219;28;20238;-87
2022/04/18 09:57:11;;;;;;;3.10;1.90;;;;;;;6.73;80.09;94306.91;4991064;28;20557;-87
2022/04/18 09:59:40;;;;;;;2.43;1.70;;;;;;;6.66;80.68;94282.91;4995919;28;20261;-89
2022/04/18 10:02:14;;;;;;;2.90;2.23;;;;;;;6.63;81.54;94289.28;4994965;28;20666;-89
2022/04/18 10:04:42;;;;;;;3.80;2.23;;;;;;;6.48;82.02;94296.44;4994386;28;20201;-90
2022/04/18 10:07:10;;;;;;;6.07;2.00;;;;;;;6.45;82.56;94286.53;4997047;28;20227;-89
2022/04/18 10:09:40;;;;;;;2.20;1.93;;;;;;;6.42;82.62;94273.22;5006484;28;20288;-86
2022/04/18 10:12:09;;;;;;;2.50;2.00;;;;;;;6.43;82.57;94280.78;4995624;28;20209;-88
2022/04/18 10:14:36;;;;;;;2.97;2.17;;;;;;;6.55;81.86;94284.31;4999910;28;20200;-87
2022/04/18 10:17:07;;;;;;;3.07;2.10;;;;;;;6.21;80.61;94238.94;4992982;28;20205;-88
2022/04/18 10:19:49;;;;;;;3.47;1.90;;;;;;;6.52;80.16;94274.38;4987025;28;20196;-88
2022/04/18 10:22:34;;;;;;;2.27;1.90;;;;;;;6.46;79.95;94248.63;4992048;28;20283;-88
2022/04/18 10:25:10;;;;;;;6.50;2.23;;;;;;;6.93;79.98;94286.19;5003614;28;20231;-88
2022/04/18 10:28:04;;;;;;;5.20;2.40;;;;;;;6.67;79.46;94236.22;4990460;28;20196;-88
2022/04/18 10:30:35;;;;;;;6.43;1.90;;;;;;;6.98;79.92;94273.47;4983397;28;20483;-86
2022/04/18 10:33:05;;;;;;;4.30;2.17;;;;;;;6.92;81.58;94275.06;4981758;28;20235;-84
2022/04/18 10:35:32;;;;;;;5.83;2.80;;;;;;;6.98;80.42;94271.69;4986064;28;20205;-87
2022/04/18 10:38:04;;;;;;;4.90;2.43;;;;;;;7.11;80.41;94279.34;4982326;28;20423;-79
2022/04/18 10:40:39;;;;;;;4.97;2.50;;;;;;;7.14;79.78;94278.16;4981061;28;20192;-86
2022/04/18 10:43:10;;;;;;;3.53;2.40;;;;;;;7.24;80.27;94278.53;4987014;28;20185;-89
2022/04/18 10:45:46;;;;;;;4.73;2.63;;;;;;;6.89;81.03;94251.44;4988325;28;20585;-88
2022/04/18 10:48:14;;;;;;;2.83;2.40;;;;;;;7.00;81.51;94272.25;4990059;28;20295;-89
2022/04/18 10:50:47;;;;;;;4.47;2.10;;;;;;;7.02;82.54;94269.47;4981389;28;20634;-90
2022/04/18 10:53:19;;;;;;;2.93;2.30;;;;;;;6.83;81.53;94271.13;4992615;28;20624;-87
2022/04/18 10:56:10;;;;;;;4.50;1.90;;;;;;;6.91;80.67;94270.91;4982469;28;20200;-88
2022/04/18 10:58:40;;;;;;;3.03;2.10;;;;;;;6.91;79.84;94257.19;4978817;28;20211;-90
2022/04/18 11:01:09;;;;;;;2.50;1.93;;;;;;;6.96;78.80;94271.06;4985936;28;20187;-82
2022/04/18 11:03:47;;;;;;;4.53;2.10;;;;;;;7.04;79.13;94272.66;4983957;28;20195;-86
2022/04/18 11:06:49;;;;;;;2.30;2.10;;;;;;;7.07;78.48;94277.41;4986942;28;20189;-84
2022/04/18 11:09:19;;;;;;;5.57;1.93;;;;;;;7.15;77.72;94265.03;4987679;28;20283;-85
2022/04/18 11:11:52;;;;;;;6.40;1.80;;;;;;;7.27;76.18;94270.34;5000978;28;20663;-85
2022/04/18 11:14:21;;;;;;;2.10;1.90;;;;;;;7.27;75.87;94273.69;4988384;28;20211;-84
2022/04/18 11:16:59;;;;;;;6.23;2.33;;;;;;;7.21;74.24;94274.56;4979695;28;20215;-82
2022/04/18 11:19:29;;;;;;;2.43;2.07;;;;;;;7.14;76.19;94267.81;4983555;28;20219;-81
2022/04/18 11:22:20;;;;;;;2.20;2.00;;;;;;;7.06;76.20;94243.03;4985812;28;20208;-78
2022/04/18 11:25:02;;;;;;;3.00;2.10;;;;;;;7.25;74.52;94264.56;4994127;28;20296;-83
2022/04/18 11:27:37;;;;;;;2.50;1.90;;;;;;;7.28;73.54;94259.78;4992169;28;20660;-82
2022/04/18 11:30:08;;;;;;;2.60;1.80;;;;;;;7.23;71.99;94261.41;4986072;28;20195;-82
2022/04/18 11:32:37;;;;;;;7.37;1.77;;;;;;;7.19;72.36;94257.66;4980890;28;20200;-81
2022/04/18 11:35:08;;;;;;;4.27;1.73;;;;;;;7.20;72.13;94267.00;4983520;28;20200;-81
2022/04/18 11:37:39;;;;;;;2.63;2.20;;;;;;;7.12;73.62;94262.88;4985637;28;20283;-82
2022/04/18 11:40:08;;;;;;;2.20;2.00;;;;;;;7.04;74.30;94257.16;5006315;28;20609;-83
2022/04/18 11:42:37;;;;;;;2.47;2.07;;;;;;;7.21;75.30;94258.25;5003070;28;20200;-88
2022/04/18 11:45:06;;;;;;;2.87;2.10;;;;;;;7.20;74.24;94257.47;4998800;28;20204;-87
2022/04/18 11:47:38;;;;;;;3.20;2.10;;;;;;;7.37;73.62;94257.75;5000379;28;20196;-83
2022/04/18 11:50:07;;;;;;;3.63;2.07;;;;;;;7.36;73.50;94248.41;5003787;28;20663;-84
2022/04/18 11:52:37;;;;;;;2.40;2.20;;;;;;;7.41;72.45;94257.16;4998612;28;20214;-82
2022/04/18 11:55:06;;;;;;;2.53;2.20;;;;;;;7.36;71.20;94251.00;5000860;28;20271;-81
2022/04/18 11:57:34;;;;;;;3.33;2.40;;;;;;;7.37;72.25;94252.59;5001941;28;20201;-83
2022/04/18 12:00:02;;;;;;;3.50;2.47;;;;;;;7.38;72.93;94254.19;4994737;28;20573;-83
2022/04/18 12:08:03;;;;;;;5.77;3.90;;;;;;;7.75;75.10;94239.59;5001175;28;20190;-81
2022/04/18 12:10:33;;;;;;;10.13;3.90;;;;;;;7.85;74.50;94248.47;5001605;28;20200;-87